Terminal Aerodrome Forecast
Issued by NWS Wilmington, NC

Home | Current Version | Previous Version | Text Only | Print | Product List | Glossary On
Versions: 1 2 3 4 5 6 7 8 9 10 11 12 13 14 15 16 17 18 19 20
000
FTUS42 KILM 010535
TAFILM
TAF
KILM 010535Z 0106/0206 VRB03KT P6SM VCSH BKN060
     FM010900 VRB03KT 4SM BR SCT008 BKN040
     FM011100 VRB04KT P6SM SCT050 BKN100
      TEMPO 0114/0118 5SM -SHRA BKN050
     FM011800 16006KT P6SM VCSH BKN040 BKN100
      TEMPO 0118/0122 5SM -TSRA BKN035CB
     FM012200 17010KT P6SM SCT040 BKN080
     FM020000 20006KT P6SM SCT080=

USA.gov is the U.S. government's official web portal to all federal, state and local government web resources and services.